Time;durP1;ratioP1;P1;durP2;ratioP2;P2;SDS_P1;SDS_P2;PMS_P1;PMS_P2;Temp;Humidity;BMP_temperature;BMP_pressure;BME280_temperature;BME280_humidity;BME280_pressure;Samples;Min_cycle;Max_cycle;Signal;HPM_P1;HPM_P2
2022/09/12 00:00:27;;;;;;;33.38;20.02;;;15.40;99.90;;;;;;5011192;28;20582;-68
2022/09/12 00:02:54;;;;;;;36.13;20.38;;;15.40;99.90;;;;;;5011701;28;20037;-68
2022/09/12 00:05:21;;;;;;;33.80;20.35;;;15.40;99.90;;;;;;5011681;28;20490;-68
2022/09/12 00:07:47;;;;;;;34.60;20.50;;;15.40;99.90;;;;;;5011499;28;20483;-68
2022/09/12 00:10:13;;;;;;;29.83;18.17;;;15.40;99.90;;;;;;5011749;28;20177;-68
2022/09/12 00:12:39;;;;;;;32.80;19.73;;;15.40;99.90;;;;;;5012393;28;20026;-68
2022/09/12 00:15:06;;;;;;;32.75;19.42;;;15.40;99.90;;;;;;5011894;28;20026;-68
2022/09/12 00:17:36;;;;;;;32.63;20.23;;;15.30;99.90;;;;;;5011813;28;20065;-68
2022/09/12 00:20:05;;;;;;;32.28;19.42;;;15.30;99.90;;;;;;5011783;28;20105;-68
2022/09/12 00:22:31;;;;;;;32.15;19.83;;;15.30;99.90;;;;;;5012241;28;20052;-67
2022/09/12 00:24:57;;;;;;;30.98;20.10;;;15.30;99.90;;;;;;5011961;28;20038;-68
2022/09/12 00:27:23;;;;;;;33.63;19.48;;;15.30;99.90;;;;;;5012329;28;20044;-69
2022/09/12 00:29:49;;;;;;;30.45;18.30;;;15.30;99.90;;;;;;4994337;28;20033;-67
2022/09/12 00:32:15;;;;;;;29.15;17.73;;;15.30;99.90;;;;;;5011543;28;20034;-68
2022/09/12 00:34:41;;;;;;;31.92;19.02;;;15.40;99.90;;;;;;5011062;28;20033;-69
2022/09/12 00:37:07;;;;;;;30.08;18.13;;;15.30;99.90;;;;;;5011047;28;20033;-67
2022/09/12 00:39:33;;;;;;;30.08;18.67;;;15.30;99.90;;;;;;5011396;28;20417;-67
2022/09/12 00:41:58;;;;;;;31.55;19.27;;;15.30;99.90;;;;;;5011003;28;20438;-68
2022/09/12 00:44:24;;;;;;;30.45;19.27;;;15.30;99.90;;;;;;5010594;28;20050;-69
2022/09/12 00:46:56;;;;;;;28.92;18.52;;;15.20;99.90;;;;;;5010707;28;20092;-69
2022/09/12 00:49:30;;;;;;;28.45;18.55;;;15.20;99.90;;;;;;5010885;28;20060;-69
2022/09/12 00:52:13;;;;;;;32.08;19.15;;;15.20;99.90;;;;;;4993376;28;20083;-70
2022/09/12 00:54:53;;;;;;;28.25;17.17;;;15.20;99.90;;;;;;5011372;28;20080;-68
2022/09/12 00:57:23;;;;;;;30.48;18.63;;;15.20;99.90;;;;;;4993246;28;20223;-68
2022/09/12 00:59:58;;;;;;;29.02;18.88;;;15.10;99.90;;;;;;5010768;28;20049;-68
2022/09/12 01:02:25;;;;;;;31.52;19.27;;;15.10;99.90;;;;;;5011025;28;20138;-68
2022/09/12 01:04:51;;;;;;;29.55;18.83;;;15.10;99.90;;;;;;4992655;28;20030;-68
2022/09/12 01:07:19;;;;;;;27.45;18.77;;;15.10;99.90;;;;;;5005771;28;20076;-68
2022/09/12 01:09:46;;;;;;;31.80;18.33;;;15.00;99.90;;;;;;5010427;28;20083;-67
2022/09/12 01:12:14;;;;;;;29.65;17.83;;;15.00;99.90;;;;;;5010924;28;20140;-70
2022/09/12 01:14:40;;;;;;;30.75;19.10;;;15.00;99.90;;;;;;5012028;28;20169;-69
2022/09/12 01:17:06;;;;;;;29.88;18.67;;;15.10;99.90;;;;;;5011613;28;20066;-68
2022/09/12 01:19:38;;;;;;;30.65;18.52;;;15.00;99.90;;;;;;5011147;28;20553;-67
2022/09/12 01:22:26;;;;;;;30.88;18.52;;;15.00;99.90;;;;;;5011097;28;20041;-68
2022/09/12 01:25:22;;;;;;;29.17;17.20;;;15.00;99.90;;;;;;5011270;28;20022;-68
2022/09/12 01:28:22;;;;;;;31.83;19.70;;;15.00;99.90;;;;;;5011180;28;20026;-68
2022/09/12 01:31:17;;;;;;;32.08;18.10;;;14.90;99.90;;;;;;5011292;28;20438;-68
2022/09/12 01:33:54;;;;;;;25.10;17.00;;;14.90;99.90;;;;;;5011005;28;20232;-69
2022/09/12 01:36:50;;;;;;;27.95;17.05;;;14.90;99.90;;;;;;5010575;28;20080;-68
2022/09/12 01:39:47;;;;;;;29.60;18.73;;;14.90;99.90;;;;;;5009906;28;20602;-69
2022/09/12 01:42:30;;;;;;;32.25;18.20;;;14.90;99.90;;;;;;5009881;28;20034;-68
2022/09/12 01:45:26;;;;;;;28.40;18.88;;;14.90;99.90;;;;;;5010259;28;20026;-68
2022/09/12 01:48:02;;;;;;;28.85;16.77;;;14.80;99.90;;;;;;5010104;28;20045;-69
2022/09/12 01:50:32;;;;;;;31.05;18.48;;;14.80;99.90;;;;;;5010197;28;20037;-68
2022/09/12 01:53:08;;;;;;;30.25;17.65;;;14.80;99.90;;;;;;5010241;28;20054;-69
2022/09/12 01:55:37;;;;;;;27.27;17.63;;;14.80;99.90;;;;;;5010286;28;20034;-69
2022/09/12 01:58:09;;;;;;;28.75;17.80;;;14.80;99.90;;;;;;5010103;28;20040;-68
2022/09/12 02:00:42;;;;;;;25.17;16.98;;;14.80;99.90;;;;;;5010274;28;20026;-69
2022/09/12 02:03:14;;;;;;;28.73;17.40;;;14.90;99.90;;;;;;5010929;28;20101;-69
2022/09/12 02:05:53;;;;;;;25.65;16.35;;;14.90;99.90;;;;;;5010144;28;20030;-68
2022/09/12 02:08:26;;;;;;;30.48;16.67;;;14.80;99.90;;;;;;5008640;28;20391;-68
2022/09/12 02:10:59;;;;;;;32.35;18.08;;;14.80;99.90;;;;;;5009590;28;20072;-69
2022/09/12 02:13:35;;;;;;;27.55;16.50;;;14.70;99.90;;;;;;5010741;28;20559;-68
2022/09/12 02:16:09;;;;;;;27.30;15.93;;;14.70;99.90;;;;;;5010540;28;20145;-68
2022/09/12 02:18:39;;;;;;;30.85;18.17;;;14.70;99.90;;;;;;5013614;28;20132;-68
2022/09/12 02:21:06;;;;;;;28.92;16.25;;;14.70;99.90;;;;;;5013844;28;20030;-69
2022/09/12 02:23:35;;;;;;;26.65;16.42;;;14.70;99.90;;;;;;5013623;28;20112;-69
2022/09/12 02:26:07;;;;;;;28.90;17.83;;;14.70;99.90;;;;;;5013581;28;20026;-68
2022/09/12 02:28:37;;;;;;;31.40;17.55;;;14.70;99.90;;;;;;5013634;28;20108;-68
2022/09/12 02:31:08;;;;;;;23.95;16.02;;;14.70;99.90;;;;;;5013654;28;20108;-68
2022/09/12 02:33:55;;;;;;;25.65;15.85;;;14.60;99.90;;;;;;5013589;28;20037;-68
2022/09/12 02:36:22;;;;;;;26.65;16.30;;;14.60;99.90;;;;;;5013734;28;20022;-68
2022/09/12 02:38:49;;;;;;;28.58;16.52;;;14.60;99.90;;;;;;5013191;28;20030;-69
2022/09/12 02:41:19;;;;;;;25.27;16.00;;;14.60;99.90;;;;;;5013484;28;20111;-69
2022/09/12 02:43:47;;;;;;;32.05;18.92;;;14.60;99.90;;;;;;5052426;23;20045;-80
2022/09/12 02:46:24;;;;;;;26.95;16.95;;;14.60;99.90;;;;;;5033137;28;20059;-80
2022/09/12 02:48:50;;;;;;;25.88;15.45;;;14.60;99.90;;;;;;5033655;28;20057;-80
2022/09/12 02:51:16;;;;;;;26.60;16.90;;;14.60;99.90;;;;;;5033555;28;20040;-80
2022/09/12 02:53:43;;;;;;;23.48;15.98;;;14.50;99.90;;;;;;5033553;28;20375;-80
2022/09/12 02:56:16;;;;;;;22.55;14.48;;;14.50;99.90;;;;;;5033259;28;20394;-80
2022/09/12 02:58:43;;;;;;;24.40;14.43;;;14.50;99.90;;;;;;5033269;28;20108;-80
2022/09/12 03:01:26;;;;;;;27.00;16.08;;;14.50;99.90;;;;;;5033740;28;20059;-80
2022/09/12 03:03:51;;;;;;;27.00;15.32;;;14.50;99.90;;;;;;5033205;28;20061;-81
2022/09/12 03:06:30;;;;;;;30.10;14.98;;;14.50;99.90;;;;;;5033167;28;20068;-81
2022/09/12 03:09:01;;;;;;;25.23;14.95;;;14.50;99.90;;;;;;5015403;28;20068;-81
2022/09/12 03:12:02;;;;;;;22.88;14.10;;;14.50;99.90;;;;;;5032861;28;20029;-80
2022/09/12 03:14:31;;;;;;;25.75;15.77;;;14.40;99.90;;;;;;5033114;28;20108;-80
2022/09/12 03:17:07;;;;;;;23.60;14.23;;;14.50;99.90;;;;;;5032917;28;20043;-80
2022/09/12 03:19:53;;;;;;;23.95;14.30;;;14.40;99.90;;;;;;5032689;28;20037;-80
2022/09/12 03:22:26;;;;;;;22.17;14.50;;;14.40;99.90;;;;;;5015189;28;20536;-80
2022/09/12 03:25:13;;;;;;;23.00;14.82;;;14.40;99.90;;;;;;5032828;28;20478;-80
2022/09/12 03:27:48;;;;;;;23.75;14.40;;;14.40;99.90;;;;;;5032020;28;20124;-80
2022/09/12 03:30:14;;;;;;;25.35;15.38;;;14.40;99.90;;;;;;5032809;28;20036;-80
2022/09/12 03:32:53;;;;;;;22.10;13.98;;;14.40;99.90;;;;;;5032178;28;20022;-80
2022/09/12 03:35:21;;;;;;;25.00;15.88;;;14.40;99.90;;;;;;5032585;28;20021;-80
2022/09/12 03:37:48;;;;;;;26.20;15.15;;;14.30;99.90;;;;;;5032634;28;20551;-80
2022/09/12 03:40:14;;;;;;;22.65;14.23;;;14.30;99.90;;;;;;5032251;28;20029;-80
2022/09/12 03:42:40;;;;;;;26.70;14.45;;;14.30;99.90;;;;;;5032424;28;20037;-80
2022/09/12 03:45:07;;;;;;;24.80;14.07;;;14.30;99.90;;;;;;5015009;28;20087;-80
2022/09/12 03:47:34;;;;;;;24.75;15.85;;;14.40;99.90;;;;;;4998398;28;20566;-80
2022/09/12 03:50:01;;;;;;;26.70;16.33;;;14.40;99.90;;;;;;5032037;28;20061;-80
2022/09/12 03:52:27;;;;;;;20.90;14.60;;;14.40;99.90;;;;;;5013760;28;20524;-80
2022/09/12 03:54:52;;;;;;;23.25;15.70;;;14.30;99.90;;;;;;5031929;28;20116;-80
2022/09/12 03:57:18;;;;;;;22.42;14.18;;;14.30;99.90;;;;;;5014453;28;20029;-80
2022/09/12 03:59:44;;;;;;;23.38;14.88;;;14.30;99.90;;;;;;5032777;28;20051;-84
2022/09/12 04:02:12;;;;;;;23.42;14.45;;;14.30;99.90;;;;;;5004877;28;20037;-84
2022/09/12 04:04:40;;;;;;;25.08;15.10;;;14.30;99.90;;;;;;5026175;23;20045;-72
2022/09/12 04:07:06;;;;;;;22.20;13.65;;;14.30;99.90;;;;;;5061701;28;20066;-71
2022/09/12 04:09:32;;;;;;;21.02;14.20;;;14.30;99.90;;;;;;5070407;28;20056;-71
2022/09/12 04:11:58;;;;;;;20.70;13.20;;;14.30;99.90;;;;;;5054090;28;20361;-73
2022/09/12 04:14:23;;;;;;;23.08;14.00;;;14.30;99.90;;;;;;5050804;28;20108;-73
2022/09/12 04:16:49;;;;;;;21.63;14.27;;;14.30;99.90;;;;;;5050554;28;20601;-72
2022/09/12 04:19:15;;;;;;;22.92;14.63;;;14.30;99.90;;;;;;5036456;28;20160;-74
2022/09/12 04:21:41;;;;;;;23.60;14.60;;;14.20;99.90;;;;;;5030631;28;20037;-74
2022/09/12 04:24:06;;;;;;;24.20;13.90;;;14.20;99.90;;;;;;5030321;28;20555;-74
2022/09/12 04:26:32;;;;;;;22.00;13.43;;;14.20;99.90;;;;;;5030442;28;20108;-73
2022/09/12 04:28:58;;;;;;;21.58;13.25;;;14.20;99.90;;;;;;5030448;28;20383;-73
2022/09/12 04:31:24;;;;;;;22.83;14.05;;;14.20;99.90;;;;;;5030344;28;20029;-73
2022/09/12 04:33:55;;;;;;;22.98;13.65;;;14.20;99.90;;;;;;5029855;28;20498;-73
2022/09/12 04:36:22;;;;;;;26.00;14.75;;;14.20;99.90;;;;;;5030171;28;20508;-74
2022/09/12 04:38:48;;;;;;;22.15;13.85;;;14.20;99.90;;;;;;5029601;28;20056;-74
2022/09/12 04:41:20;;;;;;;20.67;13.52;;;14.20;99.90;;;;;;5030204;28;20036;-74
2022/09/12 04:43:50;;;;;;;22.52;14.13;;;14.20;99.90;;;;;;5030245;28;20041;-74
2022/09/12 04:46:19;;;;;;;21.10;13.50;;;14.20;99.90;;;;;;5029902;28;20030;-74
2022/09/12 04:48:45;;;;;;;22.50;13.60;;;14.20;99.90;;;;;;5029630;28;20033;-73
2022/09/12 04:51:14;;;;;;;22.88;13.10;;;14.20;99.90;;;;;;5029921;28;20040;-73
2022/09/12 04:53:41;;;;;;;21.27;13.77;;;14.20;99.90;;;;;;5045139;28;20119;-74
2022/09/12 04:56:10;;;;;;;23.52;13.90;;;14.20;99.90;;;;;;5045149;28;20041;-74
2022/09/12 04:58:36;;;;;;;20.92;13.73;;;14.20;99.90;;;;;;5029830;28;20025;-73
2022/09/12 05:01:08;;;;;;;22.75;14.43;;;14.20;99.90;;;;;;5029782;28;20022;-74
2022/09/12 05:03:34;;;;;;;21.90;14.10;;;14.20;99.90;;;;;;5027941;28;20160;-74
2022/09/12 05:06:05;;;;;;;22.05;13.15;;;14.30;99.90;;;;;;5029399;28;20083;-74
2022/09/12 05:08:31;;;;;;;21.95;13.25;;;14.30;99.90;;;;;;5029778;28;20037;-75
2022/09/12 05:11:02;;;;;;;24.00;13.38;;;14.30;99.90;;;;;;5029777;28;20044;-74
2022/09/12 05:13:28;;;;;;;22.95;13.70;;;14.30;99.90;;;;;;5028480;28;20030;-73
2022/09/12 05:15:55;;;;;;;22.15;13.63;;;14.30;99.90;;;;;;5029837;28;20116;-73
2022/09/12 05:18:21;;;;;;;22.67;14.00;;;14.30;99.90;;;;;;5029146;28;20454;-73
2022/09/12 05:20:47;;;;;;;24.05;14.27;;;14.30;99.90;;;;;;5029668;28;20109;-73
2022/09/12 05:23:13;;;;;;;26.70;15.23;;;14.30;99.90;;;;;;5029801;28;20022;-73
2022/09/12 05:25:39;;;;;;;20.92;13.38;;;14.30;99.90;;;;;;5029768;28;20025;-73
2022/09/12 05:28:05;;;;;;;21.00;13.52;;;14.40;99.90;;;;;;5028209;28;20026;-74
2022/09/12 05:30:30;;;;;;;22.88;14.13;;;14.40;99.90;;;;;;5045566;28;20034;-73
2022/09/12 05:32:56;;;;;;;24.35;14.10;;;14.40;99.90;;;;;;5029241;28;20026;-74
2022/09/12 05:35:22;;;;;;;22.58;13.57;;;14.50;99.90;;;;;;5045146;28;20029;-74
2022/09/12 05:37:48;;;;;;;22.67;14.50;;;14.60;99.90;;;;;;5029517;28;20037;-73
2022/09/12 05:40:16;;;;;;;32.40;18.50;;;14.60;99.90;;;;;;5027521;28;20029;-74
2022/09/12 05:42:43;;;;;;;30.42;18.80;;;14.60;99.90;;;;;;5028000;28;20052;-73
2022/09/12 05:45:09;;;;;;;25.38;15.30;;;14.70;99.90;;;;;;5028170;28;20421;-73
2022/09/12 05:47:36;;;;;;;19.45;12.85;;;14.80;99.90;;;;;;5027407;28;20112;-73
2022/09/12 05:50:09;;;;;;;19.85;12.65;;;14.90;99.90;;;;;;5027925;28;20029;-73
2022/09/12 05:52:36;;;;;;;19.90;12.57;;;15.00;99.90;;;;;;5029709;28;20064;-73
2022/09/12 05:55:02;;;;;;;20.73;13.52;;;15.10;99.90;;;;;;5030822;28;20037;-73
2022/09/12 05:57:28;;;;;;;20.25;12.50;;;15.20;99.90;;;;;;5033190;28;20065;-73
2022/09/12 05:59:54;;;;;;;22.77;13.85;;;15.20;99.90;;;;;;5048677;28;20056;-73
2022/09/12 06:02:20;;;;;;;20.88;12.75;;;15.20;99.90;;;;;;5048883;28;20287;-73
2022/09/12 06:04:46;;;;;;;22.23;13.50;;;15.30;99.90;;;;;;5032904;28;20397;-73
2022/09/12 06:07:13;;;;;;;22.73;13.20;;;15.40;99.90;;;;;;5033292;28;20113;-74
2022/09/12 06:09:39;;;;;;;21.98;13.32;;;15.40;99.90;;;;;;5033208;28;20025;-73
2022/09/12 06:12:07;;;;;;;18.70;12.23;;;15.50;99.90;;;;;;5033447;28;20037;-73
2022/09/12 06:14:33;;;;;;;19.75;13.38;;;15.50;99.90;;;;;;5048460;28;20463;-74
2022/09/12 06:16:59;;;;;;;19.98;12.40;;;15.50;99.90;;;;;;5033177;28;20033;-74
2022/09/12 06:19:26;;;;;;;22.60;13.18;;;15.50;99.90;;;;;;5032411;28;20497;-74
2022/09/12 06:21:53;;;;;;;23.40;12.73;;;15.60;99.90;;;;;;5032977;28;20026;-73
2022/09/12 06:24:20;;;;;;;22.13;12.45;;;15.70;99.90;;;;;;5033087;28;20465;-73
2022/09/12 06:26:47;;;;;;;22.80;12.27;;;15.70;99.90;;;;;;5048360;28;20511;-73
2022/09/12 06:29:14;;;;;;;19.42;12.20;;;15.70;99.90;;;;;;5032696;28;20044;-74
2022/09/12 06:31:41;;;;;;;20.85;12.68;;;15.80;99.90;;;;;;5031210;28;20033;-74
2022/09/12 06:34:10;;;;;;;21.73;12.10;;;15.80;99.90;;;;;;5040412;28;20079;-71
2022/09/12 06:36:39;;;;;;;27.80;15.73;;;15.80;99.90;;;;;;5037546;28;20532;-69
2022/09/12 06:39:15;;;;;;;26.02;12.20;;;15.90;99.90;;;;;;5031258;28;20055;-71
2022/09/12 06:41:41;;;;;;;17.17;11.45;;;16.30;99.90;;;;;;5032004;28;20026;-71
2022/09/12 06:44:08;;;;;;;18.67;11.23;;;16.60;99.90;;;;;;5032351;28;20394;-73
2022/09/12 06:46:34;;;;;;;16.05;10.20;;;16.70;99.90;;;;;;5031861;28;20034;-72
2022/09/12 06:49:00;;;;;;;17.48;11.82;;;16.90;99.90;;;;;;5031540;28;20476;-71
2022/09/12 06:51:28;;;;;;;17.73;11.15;;;17.00;99.90;;;;;;5032162;28;20457;-71
2022/09/12 06:53:55;;;;;;;18.15;10.93;;;16.90;99.90;;;;;;5032036;28;20512;-72
2022/09/12 06:56:24;;;;;;;16.25;10.10;;;16.90;99.90;;;;;;5031669;28;20037;-72
2022/09/12 06:58:51;;;;;;;15.90;10.65;;;16.90;99.90;;;;;;5031461;28;20103;-72
2022/09/12 07:01:23;;;;;;;18.70;11.18;;;16.90;99.90;;;;;;5030586;28;20098;-73
2022/09/12 07:03:51;;;;;;;19.95;10.15;;;16.90;99.90;;;;;;5030238;28;20038;-69
2022/09/12 07:06:19;;;;;;;16.23;10.47;;;17.00;99.90;;;;;;5031728;28;20030;-70
2022/09/12 07:08:46;;;;;;;16.33;9.95;;;16.90;99.90;;;;;;5031788;28;20108;-69
2022/09/12 07:11:18;;;;;;;16.42;10.38;;;17.00;99.90;;;;;;5031804;28;20036;-70
2022/09/12 07:13:47;;;;;;;17.58;11.35;;;17.00;99.90;;;;;;5031632;28;20029;-70
2022/09/12 07:16:14;;;;;;;18.25;10.48;;;16.90;99.90;;;;;;5046906;28;20044;-72
2022/09/12 07:18:40;;;;;;;16.70;10.48;;;16.90;99.90;;;;;;5031297;28;20030;-74
2022/09/12 07:21:11;;;;;;;15.90;9.60;;;16.90;99.90;;;;;;5031396;28;20120;-72
2022/09/12 07:23:38;;;;;;;15.25;9.93;;;17.00;99.90;;;;;;5030310;28;20081;-72
2022/09/12 07:26:05;;;;;;;14.75;9.77;;;17.00;99.90;;;;;;5031383;28;20025;-73
2022/09/12 07:28:32;;;;;;;14.68;9.75;;;17.00;99.90;;;;;;5046660;28;20109;-73
2022/09/12 07:31:14;;;;;;;14.40;10.18;;;17.00;99.90;;;;;;5031621;28;20061;-73
2022/09/12 07:33:41;;;;;;;16.75;10.40;;;17.00;99.90;;;;;;5046359;28;20040;-72
2022/09/12 07:36:16;;;;;;;16.42;9.48;;;17.00;99.90;;;;;;5031283;28;20038;-72
2022/09/12 07:38:42;;;;;;;15.23;9.43;;;17.00;99.90;;;;;;5031296;28;20053;-72
2022/09/12 07:41:18;;;;;;;17.08;10.25;;;17.00;99.90;;;;;;5031903;28;20394;-72
2022/09/12 07:43:44;;;;;;;14.90;9.60;;;17.10;99.90;;;;;;5032606;28;20038;-77
2022/09/12 07:46:11;;;;;;;14.93;9.95;;;17.10;99.90;;;;;;5032777;28;20029;-77
2022/09/12 07:48:38;;;;;;;14.65;9.18;;;17.10;99.90;;;;;;5046938;28;20029;-78
2022/09/12 07:51:09;;;;;;;13.43;9.07;;;17.10;99.90;;;;;;5031496;28;20159;-70
2022/09/12 07:53:40;;;;;;;14.63;9.38;;;17.10;99.90;;;;;;5031360;28;20413;-74
2022/09/12 07:56:07;;;;;;;13.13;9.25;;;17.10;99.90;;;;;;5030967;28;20040;-72
2022/09/12 07:58:35;;;;;;;15.77;9.65;;;17.20;99.90;;;;;;5030868;28;20072;-73
2022/09/12 08:01:08;;;;;;;14.55;9.82;;;17.20;99.90;;;;;;5031543;28;20064;-73
2022/09/12 08:03:35;;;;;;;15.73;9.20;;;17.20;99.90;;;;;;5030252;28;20022;-73
2022/09/12 08:06:10;;;;;;;18.88;11.10;;;17.20;99.90;;;;;;5012614;28;20056;-73
2022/09/12 08:08:37;;;;;;;16.80;9.65;;;17.20;99.90;;;;;;5029024;28;20068;-76
2022/09/12 08:11:06;;;;;;;16.20;9.88;;;17.20;99.90;;;;;;5030707;28;20112;-72
2022/09/12 08:13:34;;;;;;;15.30;9.73;;;17.20;99.90;;;;;;5029097;28;20041;-72
2022/09/12 08:16:03;;;;;;;14.15;9.32;;;17.20;99.90;;;;;;5044859;28;20029;-72
2022/09/12 08:18:31;;;;;;;13.80;9.13;;;17.20;99.90;;;;;;5041745;28;20032;-73
2022/09/12 08:21:05;;;;;;;14.27;9.20;;;17.20;99.90;;;;;;5049382;28;20036;-72
2022/09/12 08:23:32;;;;;;;22.88;13.00;;;17.20;99.90;;;;;;5043958;28;20033;-74
2022/09/12 08:26:02;;;;;;;20.58;12.68;;;17.20;99.90;;;;;;5029508;28;20025;-74
2022/09/12 08:28:29;;;;;;;19.33;12.00;;;17.20;99.90;;;;;;5029369;28;20063;-73
2022/09/12 08:31:12;;;;;;;14.57;10.35;;;17.30;99.90;;;;;;5029464;28;20036;-73
2022/09/12 08:33:39;;;;;;;14.68;10.07;;;17.30;99.90;;;;;;5030741;28;20037;-72
2022/09/12 08:36:08;;;;;;;15.90;8.98;;;17.30;99.90;;;;;;5044420;28;20092;-74
2022/09/12 08:38:36;;;;;;;16.83;9.27;;;17.30;99.90;;;;;;5048427;28;20516;-74
2022/09/12 08:41:10;;;;;;;16.23;10.15;;;17.40;99.90;;;;;;5035584;28;20036;-75
2022/09/12 08:44:08;;;;;;;14.43;9.60;;;17.60;99.90;;;;;;5045836;22;20441;-68
2022/09/12 08:47:02;;;;;;;12.88;9.18;;;17.60;99.90;;;;;;5000085;28;20033;-68
2022/09/12 08:49:32;;;;;;;16.33;10.38;;;17.60;99.90;;;;;;4989586;28;20475;-68
2022/09/12 08:52:10;;;;;;;13.88;9.40;;;17.60;99.90;;;;;;5000703;28;20034;-68
2022/09/12 08:54:38;;;;;;;14.52;10.00;;;17.50;99.90;;;;;;5009050;28;20103;-68
2022/09/12 08:57:07;;;;;;;16.55;10.48;;;17.50;99.90;;;;;;5009115;28;20034;-68
2022/09/12 08:59:44;;;;;;;14.60;9.20;;;17.50;99.90;;;;;;5007434;28;20146;-68
2022/09/12 09:02:48;;;;;;;14.90;9.93;;;17.60;99.90;;;;;;5000635;28;20565;-68
2022/09/12 09:05:36;;;;;;;14.40;9.30;;;17.60;99.90;;;;;;5000292;28;20030;-68
2022/09/12 09:08:22;;;;;;;13.50;8.93;;;17.60;99.90;;;;;;5007529;28;20029;-68
2022/09/12 09:11:15;;;;;;;15.45;10.57;;;17.60;99.90;;;;;;5008795;28;20061;-68
2022/09/12 09:16:55;;;;;;;16.73;10.50;;;17.60;99.90;;;;;;4996020;28;20030;-67
2022/09/12 09:19:29;;;;;;;14.00;9.77;;;17.70;99.90;;;;;;5008196;28;20505;-67
2022/09/12 09:22:05;;;;;;;17.13;10.60;;;17.70;99.90;;;;;;5006724;28;20450;-66
2022/09/12 09:24:48;;;;;;;15.45;9.98;;;17.70;99.90;;;;;;5008585;28;20022;-66
2022/09/12 09:27:34;;;;;;;15.88;8.82;;;17.70;99.90;;;;;;5007717;28;20398;-67
2022/09/12 09:30:01;;;;;;;12.63;8.65;;;17.80;99.90;;;;;;5008794;28;20034;-67
2022/09/12 09:32:35;;;;;;;14.73;8.88;;;17.80;99.90;;;;;;5008171;28;20033;-68
2022/09/12 09:35:21;;;;;;;14.25;8.90;;;17.80;99.90;;;;;;5007734;28;20038;-68
2022/09/12 09:38:16;;;;;;;14.45;9.45;;;17.80;99.90;;;;;;5015960;28;20045;-67
2022/09/12 09:41:07;;;;;;;11.75;8.50;;;17.90;99.90;;;;;;5007584;28;20052;-66
2022/09/12 09:43:36;;;;;;;12.52;8.73;;;17.90;99.90;;;;;;5007665;28;20037;-66
2022/09/12 09:46:02;;;;;;;11.27;8.45;;;17.90;99.90;;;;;;5008367;28;20034;-67
2022/09/12 09:48:36;;;;;;;13.05;8.82;;;17.90;99.90;;;;;;5007579;28;20482;-67
2022/09/12 09:51:05;;;;;;;14.05;8.45;;;17.90;99.90;;;;;;5003464;28;20411;-67
2022/09/12 09:53:49;;;;;;;13.07;8.85;;;17.80;99.90;;;;;;5003511;28;20407;-67
2022/09/12 09:56:26;;;;;;;10.63;8.25;;;17.80;99.90;;;;;;5008063;28;20112;-67
2022/09/12 09:58:52;;;;;;;10.25;7.15;;;17.80;99.90;;;;;;5007665;28;20034;-67
2022/09/12 10:01:18;;;;;;;11.85;7.35;;;17.80;99.90;;;;;;5007581;28;20076;-68
2022/09/12 10:03:53;;;;;;;10.45;7.25;;;17.90;99.90;;;;;;5006360;28;20088;-68
2022/09/12 10:06:22;;;;;;;11.30;7.38;;;18.00;99.90;;;;;;5007819;28;20028;-68
2022/09/12 10:08:49;;;;;;;10.20;7.07;;;18.10;99.90;;;;;;5007747;28;20088;-68
2022/09/12 10:11:15;;;;;;;10.20;7.70;;;18.10;99.90;;;;;;5007695;28;20083;-72
2022/09/12 10:13:53;;;;;;;11.82;7.68;;;18.20;99.90;;;;;;5007520;28;20030;-69
2022/09/12 10:16:26;;;;;;;15.05;8.80;;;18.30;99.90;;;;;;5007649;28;20066;-68
2022/09/12 10:18:56;;;;;;;10.80;7.57;;;18.30;99.90;;;;;;5007426;28;20085;-69
2022/09/12 10:21:53;;;;;;;11.88;8.70;;;18.30;99.90;;;;;;5008230;28;20054;-69
2022/09/12 10:24:31;;;;;;;12.15;8.88;;;18.30;99.90;;;;;;5007567;28;20066;-70
2022/09/12 10:27:05;;;;;;;9.70;7.88;;;18.20;99.90;;;;;;5009335;28;20084;-69
2022/09/12 10:29:38;;;;;;;11.73;7.82;;;18.20;99.90;;;;;;5008960;28;20030;-70
2022/09/12 10:32:08;;;;;;;10.57;7.50;;;18.30;99.90;;;;;;5008946;28;20402;-69
2022/09/12 10:34:36;;;;;;;12.10;8.20;;;18.40;99.90;;;;;;5008198;28;20057;-69
2022/09/12 10:37:07;;;;;;;;;;;18.60;99.90;;;;;;5007674;28;20278;-70
2022/09/12 10:39:35;;;;;;;9.65;6.80;;;18.60;99.90;;;;;;5011694;28;19917;-69
2022/09/12 10:42:02;;;;;;;8.48;6.40;;;18.60;99.90;;;;;;5011819;28;20038;-69
2022/09/12 10:44:30;;;;;;;9.25;7.05;;;18.60;99.90;;;;;;5012096;28;20375;-69
2022/09/12 10:46:57;;;;;;;10.20;6.63;;;18.60;99.90;;;;;;5011931;28;20049;-69
2022/09/12 10:49:28;;;;;;;9.45;7.20;;;18.60;99.90;;;;;;5010690;28;20030;-69
2022/09/12 10:51:56;;;;;;;9.15;6.10;;;18.70;99.90;;;;;;5010746;28;20386;-69
2022/09/12 10:54:25;;;;;;;6.88;5.00;;;18.80;99.90;;;;;;5011723;28;20420;-69
2022/09/12 10:56:58;;;;;;;8.10;5.53;;;18.90;99.90;;;;;;5011782;28;20034;-69
2022/09/12 11:00:02;;;;;;;6.90;5.28;;;19.00;99.90;;;;;;5011599;28;20434;-68
2022/09/12 11:02:51;;;;;;;6.28;4.80;;;19.20;99.90;;;;;;5016960;28;20061;-70
2022/09/12 11:05:42;;;;;;;8.85;5.72;;;19.20;99.90;;;;;;5011885;28;20058;-74
2022/09/12 11:08:35;;;;;;;7.22;5.10;;;19.40;99.90;;;;;;5011732;28;20032;-72
2022/09/12 11:11:39;;;;;;;8.57;4.82;;;19.50;99.90;;;;;;5011755;28;20030;-70
2022/09/12 11:14:37;;;;;;;8.02;5.32;;;19.60;99.90;;;;;;5020626;28;20387;-70
2022/09/12 11:17:24;;;;;;;6.10;4.85;;;19.60;99.90;;;;;;5011322;28;20053;-71
2022/09/12 11:20:14;;;;;;;9.70;6.43;;;19.60;99.90;;;;;;5010990;28;20034;-67
2022/09/12 11:22:52;;;;;;;11.57;7.85;;;19.50;99.90;;;;;;5010777;28;20360;-71
2022/09/12 11:25:46;;;;;;;9.82;7.53;;;19.30;99.90;;;;;;5011584;28;20110;-70
2022/09/12 11:28:27;;;;;;;10.48;6.22;;;19.10;99.90;;;;;;5011121;28;20022;-70
2022/09/12 11:31:05;;;;;;;9.85;6.03;;;18.90;99.90;;;;;;5011117;28;20030;-70
2022/09/12 11:33:52;;;;;;;7.72;6.20;;;18.70;99.90;;;;;;5013021;28;20493;-70
2022/09/12 11:36:46;;;;;;;8.45;6.55;;;18.60;99.90;;;;;;5017758;28;20706;-70
2022/09/12 11:39:15;;;;;;;8.32;6.75;;;18.40;99.90;;;;;;5021194;28;20037;-70
2022/09/12 11:41:46;;;;;;;7.15;5.70;;;18.30;99.90;;;;;;5011039;28;20037;-70
2022/09/12 11:44:24;;;;;;;7.28;5.20;;;18.20;99.90;;;;;;5010976;28;20124;-70
2022/09/12 11:46:49;;;;;;;8.60;5.55;;;18.20;99.90;;;;;;5011225;28;20026;-70
2022/09/12 11:49:52;;;;;;;7.32;5.10;;;18.10;99.90;;;;;;5002223;28;20180;-69
2022/09/12 11:52:21;;;;;;;9.45;6.15;;;18.10;99.90;;;;;;4991372;28;20053;-69
2022/09/12 11:55:15;;;;;;;8.18;4.97;;;18.10;99.90;;;;;;4991356;28;20372;-69
2022/09/12 11:57:47;;;;;;;7.88;5.25;;;18.10;99.90;;;;;;4989780;28;20034;-69
2022/09/12 12:00:27;;;;;;;6.78;5.03;;;18.10;99.90;;;;;;4990704;28;20042;-69
2022/09/12 12:03:05;;;;;;;6.88;5.32;;;18.10;99.90;;;;;;4991188;28;20125;-73
2022/09/12 12:05:39;;;;;;;8.50;5.65;;;18.10;99.90;;;;;;4990500;28;20498;-68
2022/09/12 12:08:06;;;;;;;6.32;4.65;;;18.10;99.90;;;;;;4991304;28;20026;-71
2022/09/12 12:10:39;;;;;;;6.85;5.20;;;18.10;99.90;;;;;;4990807;28;20118;-71
2022/09/12 12:13:18;;;;;;;8.10;4.88;;;18.20;99.90;;;;;;4990856;28;20026;-70
2022/09/12 12:15:55;;;;;;;6.57;5.20;;;18.20;99.90;;;;;;4993576;28;20058;-71
2022/09/12 12:18:27;;;;;;;6.07;4.18;;;18.20;99.90;;;;;;5004680;28;20061;-72
2022/09/12 12:20:55;;;;;;;6.72;4.45;;;18.20;99.90;;;;;;5006760;28;20029;-72
2022/09/12 12:23:23;;;;;;;7.82;4.95;;;18.20;99.90;;;;;;5008747;28;20034;-72
2022/09/12 12:25:57;;;;;;;5.78;4.97;;;18.20;99.90;;;;;;5006625;28;20036;-73
2022/09/12 12:28:48;;;;;;;5.80;4.88;;;18.20;99.90;;;;;;5009454;28;20048;-73
2022/09/12 12:31:14;;;;;;;6.60;4.65;;;18.10;99.90;;;;;;5009359;28;20509;-73
2022/09/12 12:33:42;;;;;;;6.95;4.88;;;18.10;99.90;;;;;;5004294;28;20041;-73
2022/09/12 12:36:09;;;;;;;;;;;18.10;99.90;;;;;;5007754;28;20038;-72
2022/09/12 12:38:42;;;;;;;6.28;4.53;;;18.20;99.90;;;;;;5011500;28;19995;-73
2022/09/12 12:41:16;;;;;;;5.53;3.58;;;18.20;99.90;;;;;;5008620;28;20026;-73
2022/09/12 12:43:55;;;;;;;5.90;3.88;;;18.10;99.90;;;;;;5008662;28;20030;-73
2022/09/12 12:46:24;;;;;;;8.23;4.70;;;18.10;99.90;;;;;;5008004;28;20038;-73
2022/09/12 12:49:31;;;;;;;5.45;4.20;;;18.10;99.90;;;;;;5008162;28;20038;-72
2022/09/12 12:52:00;;;;;;;5.93;4.32;;;18.00;99.90;;;;;;5025487;28;20033;-72
2022/09/12 12:54:44;;;;;;;6.05;4.43;;;18.00;99.90;;;;;;5011444;28;20053;-72
2022/09/12 12:57:22;;;;;;;5.03;3.90;;;17.90;99.90;;;;;;5007500;28;20063;-72
2022/09/12 12:59:52;;;;;;;5.60;4.60;;;17.90;99.90;;;;;;5008566;28;20110;-72
2022/09/12 13:02:39;;;;;;;5.63;4.25;;;18.00;99.90;;;;;;5006998;28;20138;-72